Observations for LONDON HEATHROW, United Kingdom (EGLL)

EGLL 250320Z AUTO 28005KT 7000 NCD M01/M01 Q1013 NOSIG  
EGLL 250250Z AUTO 27004KT 7000 NCD M00/M01 Q1013 NOSIG  
EGLL 250220Z AUTO 27004KT 2900 BR NCD M00/M01 Q1012 BECMG 6000  
EGLL 250150Z AUTO 25003KT 6000 NCD M00/M01 Q1012 NOSIG  
EGLL 250120Z AUTO 28004KT 6000 NCD M00/M01 Q1013 NOSIG  
EGLL 250050Z AUTO 28003KT 6000 NCD 01/00 Q1013 NOSIG
EGLL 250020Z VRB01KT 6000 NSC 01/00 Q1013 NOSIG 
EGLL 242350Z 28003KT 6000 NSC 01/00 Q1013 NOSIG 
EGLL 242320Z AUTO 29002KT 6000 NCD 02/01 Q1013 NOSIG
EGLL 242250Z AUTO 30004KT 280V340 7000 NCD 02/01 Q1013 BECMG 5000 BR
EGLL 242220Z AUTO 28001KT 6000 NCD 01/01 Q1013 BECMG 5000 BR
EGLL 242150Z AUTO VRB01KT 7000 NCD 02/00 Q1013 BECMG 9000   
EGLL 242120Z AUTO 35001KT 8000 NCD 03/01 Q1013 NOSIG
EGLL 242050Z AUTO 30002KT 8000 NCD 03/01 Q1013 BECMG 9000   
EGLL 242020Z AUTO 29004KT 9999 NCD 03/01 Q1013 NOSIG
EGLL 241950Z AUTO VRB03KT 9999 NCD 04/01 Q1013 NOSIG
EGLL 241920Z AUTO 29003KT 9999 NCD 04/01 Q1013 NOSIG
EGLL 241850Z AUTO 31003KT 9999 NCD 05/02 Q1013 NOSIG
EGLL 241820Z AUTO 29003KT 9999 NCD 05/02 Q1013 NOSIG
EGLL 241750Z AUTO 32002KT 9999 NCD 06/02 Q1012 NOSIG
EGLL 241720Z AUTO VRB01KT 9999 NCD 06/01 Q1012 NOSIG
EGLL 241650Z AUTO VRB02KT 9999 NCD 06/00 Q1012 NOSIG
EGLL 241620Z AUTO 31003KT 9999 NCD 06/01 Q1012 NOSIG
EGLL 241550Z AUTO 29003KT 9999 NCD 07/02 Q1012 NOSIG
EGLL 241520Z AUTO 30004KT 9999 NCD 07/02 Q1012 NOSIG
EGLL 241450Z AUTO VRB03KT 9999 NCD 07/02 Q1012  
EGLL 241420Z AUTO VRB03KT 9999 NCD 07/01 Q1012 NOSIG
EGLL 241350Z AUTO VRB03KT 9999 NCD 07/02 Q1012 NOSIG
EGLL 241320Z AUTO VRB03KT 9999 NCD 08/01 Q1012 NOSIG
EGLL 241250Z AUTO VRB03KT 9999 NCD 08/01 Q1012 NOSIG
EGLL 241220Z AUTO VRB02KT 9999 NCD 08/02 Q1012 NOSIG
EGLL 241150Z AUTO VRB01KT 9999 NCD 07/02 Q1012 NOSIG
EGLL 241120Z AUTO VRB02KT 9999 NCD 07/02 Q1012 NOSIG
EGLL 241050Z AUTO VRB02KT 9999 NCD 07/02 Q1012 NOSIG
EGLL 241020Z AUTO VRB02KT 9999 NCD 07/03 Q1012 NOSIG
EGLL 240950Z AUTO 27003KT 9999 NCD 07/03 Q1011 NOSIG
EGLL 240920Z AUTO 28004KT 9999 NCD 06/03 Q1011 NOSIG
EGLL 240850Z AUTO 30005KT 9999 NCD 07/04 Q1010 NOSIG
EGLL 240820Z AUTO 30003KT 9999 NCD 06/04 Q1010 NOSIG
EGLL 240750Z AUTO 28005KT 9999 NCD 06/04 Q1010 NOSIG
EGLL 240720Z AUTO 27004KT 9999 NCD 06/04 Q1009 NOSIG
EGLL 240650Z AUTO 28004KT 230V300 9999 NCD 07/04 Q1009 NOSIG
EGLL 240620Z AUTO 26005KT 9999 NCD 06/04 Q1009 NOSIG
EGLL 240550Z AUTO 27005KT 9999 BKN049 06/04 Q1008 NOSIG 
EGLL 240520Z AUTO 27004KT 9999 FEW048 05/03 Q1008 NOSIG 
EGLL 240450Z AUTO 27005KT 9999 NCD 06/04 Q1007 NOSIG
EGLL 240420Z AUTO 28005KT 9999 NCD 06/04 Q1007 NOSIG
EGLL 240350Z AUTO 26005KT 9999 NCD 06/03 Q1007 NOSIG
EGLL 240320Z AUTO 27004KT 9999 NCD 06/04 Q1006 NOSIG
EGLL 240250Z AUTO 27004KT 9999 NCD 07/04 Q1006 NOSIG